sensor_id;sensor_type;location;lat;lon;timestamp;pressure;altitude;pressure_sealevel;temperature;humidity
6435;BME280;3250;42.694;23.278;2023-06-22T00:00:47;95192.63;;;18.99;88.91
6435;BME280;3250;42.694;23.278;2023-06-22T00:03:13;95167.16;;;18.87;89.35
6435;BME280;3250;42.694;23.278;2023-06-22T00:05:38;95151.88;;;18.77;88.90
6435;BME280;3250;42.694;23.278;2023-06-22T00:08:04;95160.97;;;18.81;88.49
6435;BME280;3250;42.694;23.278;2023-06-22T00:10:30;95256.19;;;19.39;88.68
6435;BME280;3250;42.694;23.278;2023-06-22T00:12:55;95206.28;;;19.08;88.61
6435;BME280;3250;42.694;23.278;2023-06-22T00:15:21;95194.69;;;18.92;89.11
6435;BME280;3250;42.694;23.278;2023-06-22T00:17:46;95208.63;;;18.99;89.64
6435;BME280;3250;42.694;23.278;2023-06-22T00:20:12;95206.00;;;19.04;89.37
6435;BME280;3250;42.694;23.278;2023-06-22T00:22:37;95157.16;;;18.72;89.87
6435;BME280;3250;42.694;23.278;2023-06-22T00:25:06;95202.69;;;18.92;89.62
6435;BME280;3250;42.694;23.278;2023-06-22T00:27:32;95158.47;;;18.69;89.67
6435;BME280;3250;42.694;23.278;2023-06-22T00:29:57;95155.81;;;18.69;89.85
6435;BME280;3250;42.694;23.278;2023-06-22T00:32:23;95172.94;;;18.78;89.71
6435;BME280;3250;42.694;23.278;2023-06-22T00:34:48;95160.88;;;18.71;89.78
6435;BME280;3250;42.694;23.278;2023-06-22T00:37:13;95156.91;;;18.73;89.78
6435;BME280;3250;42.694;23.278;2023-06-22T00:39:39;95194.69;;;18.92;89.90
6435;BME280;3250;42.694;23.278;2023-06-22T00:42:04;95174.31;;;18.81;89.55
6435;BME280;3250;42.694;23.278;2023-06-22T00:44:30;95131.88;;;18.53;89.49
6435;BME280;3250;42.694;23.278;2023-06-22T00:46:55;95144.78;;;18.61;89.38
6435;BME280;3250;42.694;23.278;2023-06-22T00:49:21;95185.56;;;18.88;89.60
6435;BME280;3250;42.694;23.278;2023-06-22T00:51:46;95184.22;;;18.85;89.28
6435;BME280;3250;42.694;23.278;2023-06-22T00:54:13;95149.03;;;18.57;89.52
6435;BME280;3250;42.694;23.278;2023-06-22T00:56:40;95157.88;;;18.62;89.41
6435;BME280;3250;42.694;23.278;2023-06-22T00:59:06;95170.97;;;18.64;89.53
6435;BME280;3250;42.694;23.278;2023-06-22T01:01:32;95155.78;;;18.42;89.30
6435;BME280;3250;42.694;23.278;2023-06-22T01:03:59;95136.63;;;18.19;90.03
6435;BME280;3250;42.694;23.278;2023-06-22T01:06:35;95199.75;;;18.62;90.17
6435;BME280;3250;42.694;23.278;2023-06-22T01:09:15;95159.00;;;18.44;89.48
6435;BME280;3250;42.694;23.278;2023-06-22T01:11:53;95192.78;;;18.61;88.88
6435;BME280;3250;42.694;23.278;2023-06-22T01:14:24;95174.44;;;18.42;88.83
6435;BME280;3250;42.694;23.278;2023-06-22T01:16:54;95192.16;;;18.54;88.74
6435;BME280;3250;42.694;23.278;2023-06-22T01:19:45;95212.09;;;18.68;88.57
6435;BME280;3250;42.694;23.278;2023-06-22T01:22:16;95187.63;;;18.54;88.08
6435;BME280;3250;42.694;23.278;2023-06-22T01:27:19;95245.84;;;18.84;88.39
6435;BME280;3250;42.694;23.278;2023-06-22T01:29:52;95201.09;;;18.42;88.43
6435;BME280;3250;42.694;23.278;2023-06-22T01:32:29;95217.09;;;18.42;88.66
6435;BME280;3250;42.694;23.278;2023-06-22T01:34:56;95204.19;;;18.29;89.38
6435;BME280;3250;42.694;23.278;2023-06-22T01:37:23;95219.53;;;18.44;89.45
6435;BME280;3250;42.694;23.278;2023-06-22T01:39:49;95214.97;;;18.39;89.11
6435;BME280;3250;42.694;23.278;2023-06-22T01:42:15;95168.22;;;18.05;89.15
6435;BME280;3250;42.694;23.278;2023-06-22T01:44:42;95251.34;;;18.51;88.95
6435;BME280;3250;42.694;23.278;2023-06-22T01:47:08;95165.47;;;18.00;88.87
6435;BME280;3250;42.694;23.278;2023-06-22T01:49:34;95214.03;;;18.29;89.25
6435;BME280;3250;42.694;23.278;2023-06-22T01:52:00;95161.63;;;17.91;89.24
6435;BME280;3250;42.694;23.278;2023-06-22T01:54:25;95212.00;;;18.14;88.73
6435;BME280;3250;42.694;23.278;2023-06-22T01:56:50;95145.22;;;17.77;89.26
6435;BME280;3250;42.694;23.278;2023-06-22T01:59:35;95270.56;;;18.53;89.38
6435;BME280;3250;42.694;23.278;2023-06-22T02:02:12;95215.84;;;18.23;89.22
6435;BME280;3250;42.694;23.278;2023-06-22T02:04:47;95284.00;;;18.58;88.87
6435;BME280;3250;42.694;23.278;2023-06-22T02:07:15;95265.09;;;18.42;88.74
6435;BME280;3250;42.694;23.278;2023-06-22T02:09:44;95214.78;;;18.02;88.85
6435;BME280;3250;42.694;23.278;2023-06-22T02:12:12;95293.94;;;18.45;89.27
6435;BME280;3250;42.694;23.278;2023-06-22T02:14:39;95229.25;;;18.06;89.45
6435;BME280;3250;42.694;23.278;2023-06-22T02:17:09;95190.25;;;17.79;90.17
6435;BME280;3250;42.694;23.278;2023-06-22T02:19:41;95166.41;;;17.67;90.29
6435;BME280;3250;42.694;23.278;2023-06-22T02:22:06;95172.84;;;17.71;90.71
6435;BME280;3250;42.694;23.278;2023-06-22T02:24:32;95185.22;;;17.82;90.26
6435;BME280;3250;42.694;23.278;2023-06-22T02:26:59;95231.72;;;18.13;90.15
6435;BME280;3250;42.694;23.278;2023-06-22T02:29:24;95149.31;;;17.63;89.65
6435;BME280;3250;42.694;23.278;2023-06-22T02:31:50;95187.66;;;17.84;90.56
6435;BME280;3250;42.694;23.278;2023-06-22T02:34:15;95205.38;;;17.95;90.02
6435;BME280;3250;42.694;23.278;2023-06-22T02:36:47;95164.31;;;17.69;90.33
6435;BME280;3250;42.694;23.278;2023-06-22T02:39:19;95264.19;;;18.32;90.17
6435;BME280;3250;42.694;23.278;2023-06-22T02:41:44;95191.94;;;17.85;90.06
6435;BME280;3250;42.694;23.278;2023-06-22T02:44:10;95187.09;;;17.82;90.23
6435;BME280;3250;42.694;23.278;2023-06-22T02:46:35;95265.50;;;18.29;90.65
6435;BME280;3250;42.694;23.278;2023-06-22T02:49:01;95226.00;;;18.04;90.72
6435;BME280;3250;42.694;23.278;2023-06-22T02:51:26;95221.19;;;18.01;90.79
6435;BME280;3250;42.694;23.278;2023-06-22T02:53:52;95199.69;;;17.86;90.63
6435;BME280;3250;42.694;23.278;2023-06-22T02:56:22;95191.94;;;17.85;90.74
6435;BME280;3250;42.694;23.278;2023-06-22T02:58:51;95229.25;;;18.06;90.91
6435;BME280;3250;42.694;23.278;2023-06-22T03:01:16;95191.38;;;17.83;90.78
6435;BME280;3250;42.694;23.278;2023-06-22T03:03:42;95175.28;;;17.73;90.81
6435;BME280;3250;42.694;23.278;2023-06-22T03:06:07;95200.28;;;17.93;91.03
6435;BME280;3250;42.694;23.278;2023-06-22T03:08:32;95151.41;;;17.61;90.93
6435;BME280;3250;42.694;23.278;2023-06-22T03:10:58;95236.56;;;18.16;90.99
6435;BME280;3250;42.694;23.278;2023-06-22T03:13:23;95248.06;;;18.22;90.89
6435;BME280;3250;42.694;23.278;2023-06-22T03:15:49;95224.41;;;18.03;90.47
6435;BME280;3250;42.694;23.278;2023-06-22T03:18:15;95256.63;;;18.24;90.29
6435;BME280;3250;42.694;23.278;2023-06-22T03:20:41;95247.63;;;18.08;90.27
6435;BME280;3250;42.694;23.278;2023-06-22T03:23:06;95130.00;;;17.34;90.69
6435;BME280;3250;42.694;23.278;2023-06-22T03:25:32;95301.66;;;18.42;91.21
6435;BME280;3250;42.694;23.278;2023-06-22T03:27:59;95267.66;;;18.32;91.30
6435;BME280;3250;42.694;23.278;2023-06-22T03:30:26;95284.06;;;18.46;90.54
6435;BME280;3250;42.694;23.278;2023-06-22T03:32:51;95258.41;;;18.40;89.74
6435;BME280;3250;42.694;23.278;2023-06-22T03:35:17;95263.91;;;18.55;89.93
6435;BME280;3250;42.694;23.278;2023-06-22T03:37:42;95289.03;;;18.81;89.16
6435;BME280;3250;42.694;23.278;2023-06-22T03:40:08;95288.00;;;18.87;88.49
6435;BME280;3250;42.694;23.278;2023-06-22T03:42:34;95320.84;;;19.14;88.24
6435;BME280;3250;42.694;23.278;2023-06-22T03:45:03;95294.38;;;19.08;86.60
6435;BME280;3250;42.694;23.278;2023-06-22T03:47:29;95294.38;;;19.08;86.09
6435;BME280;3250;42.694;23.278;2023-06-22T03:49:54;95329.63;;;19.37;85.51
6435;BME280;3250;42.694;23.278;2023-06-22T03:52:21;95285.66;;;19.17;85.52
6435;BME280;3250;42.694;23.278;2023-06-22T03:54:47;95293.78;;;19.33;85.11
6435;BME280;3250;42.694;23.278;2023-06-22T03:57:12;95276.25;;;19.42;85.43
6435;BME280;3250;42.694;23.278;2023-06-22T03:59:37;95331.03;;;19.81;83.65
6435;BME280;3250;42.694;23.278;2023-06-22T04:02:03;95246.69;;;19.21;83.68
6435;BME280;3250;42.694;23.278;2023-06-22T04:04:29;95289.97;;;19.55;84.71
6435;BME280;3250;42.694;23.278;2023-06-22T04:06:54;95334.03;;;19.90;85.21
6435;BME280;3250;42.694;23.278;2023-06-22T04:09:19;95268.41;;;19.62;85.60
6435;BME280;3250;42.694;23.278;2023-06-22T04:11:46;95275.25;;;19.90;84.85
6435;BME280;3250;42.694;23.278;2023-06-22T04:14:12;95276.69;;;20.08;84.94
6435;BME280;3250;42.694;23.278;2023-06-22T04:16:37;95255.59;;;20.11;83.04
6435;BME280;3250;42.694;23.278;2023-06-22T04:19:02;95241.47;;;20.21;82.93
6435;BME280;3250;42.694;23.278;2023-06-22T04:21:28;95268.63;;;20.60;80.49
6435;BME280;3250;42.694;23.278;2023-06-22T04:23:53;95267.66;;;20.86;81.27
6435;BME280;3250;42.694;23.278;2023-06-22T04:26:19;95298.78;;;21.23;79.03
6435;BME280;3250;42.694;23.278;2023-06-22T04:28:46;95283.00;;;21.31;78.22
6435;BME280;3250;42.694;23.278;2023-06-22T04:31:16;95310.59;;;21.67;77.93
6435;BME280;3250;42.694;23.278;2023-06-22T04:33:42;95282.19;;;21.56;77.58
6435;BME280;3250;42.694;23.278;2023-06-22T04:36:07;95319.44;;;22.08;77.76
6435;BME280;3250;42.694;23.278;2023-06-22T04:38:33;95327.16;;;22.25;75.61
6435;BME280;3250;42.694;23.278;2023-06-22T04:40:58;95291.47;;;22.25;74.73
6435;BME280;3250;42.694;23.278;2023-06-22T04:43:26;95287.16;;;22.34;74.37
6435;BME280;3250;42.694;23.278;2023-06-22T04:45:55;95319.31;;;22.54;72.89
6435;BME280;3250;42.694;23.278;2023-06-22T04:48:20;95333.72;;;22.73;72.12
6435;BME280;3250;42.694;23.278;2023-06-22T04:50:46;95311.94;;;22.85;73.29
6435;BME280;3250;42.694;23.278;2023-06-22T04:53:11;95332.19;;;23.16;72.05
6435;BME280;3250;42.694;23.278;2023-06-22T04:55:38;95339.31;;;23.36;70.91
6435;BME280;3250;42.694;23.278;2023-06-22T04:58:07;95322.31;;;23.51;71.20
6435;BME280;3250;42.694;23.278;2023-06-22T05:00:33;95339.00;;;23.82;68.34
6435;BME280;3250;42.694;23.278;2023-06-22T05:03:01;95346.03;;;24.06;67.77
6435;BME280;3250;42.694;23.278;2023-06-22T05:05:28;95332.81;;;24.39;68.26
6435;BME280;3250;42.694;23.278;2023-06-22T05:07:56;95342.47;;;24.69;66.00
6435;BME280;3250;42.694;23.278;2023-06-22T05:10:25;95337.66;;;24.90;64.71
6435;BME280;3250;42.694;23.278;2023-06-22T05:12:53;95339.59;;;25.27;64.29
6435;BME280;3250;42.694;23.278;2023-06-22T05:15:19;95333.75;;;25.57;61.53
6435;BME280;3250;42.694;23.278;2023-06-22T05:17:51;95330.56;;;25.74;59.95
6435;BME280;3250;42.694;23.278;2023-06-22T05:20:17;95335.78;;;25.84;59.40
6435;BME280;3250;42.694;23.278;2023-06-22T05:22:43;95314.84;;;26.08;59.87
6435;BME280;3250;42.694;23.278;2023-06-22T05:25:10;95339.56;;;26.61;59.46
6435;BME280;3250;42.694;23.278;2023-06-22T05:27:36;95329.84;;;27.01;58.39
6435;BME280;3250;42.694;23.278;2023-06-22T05:30:05;95339.84;;;27.51;58.24
6435;BME280;3250;42.694;23.278;2023-06-22T05:32:32;95332.06;;;27.94;56.92
6435;BME280;3250;42.694;23.278;2023-06-22T05:34:57;95347.78;;;28.28;56.82
6435;BME280;3250;42.694;23.278;2023-06-22T05:37:22;95340.28;;;28.64;55.30
6435;BME280;3250;42.694;23.278;2023-06-22T05:39:48;95344.91;;;28.95;52.85
6435;BME280;3250;42.694;23.278;2023-06-22T05:42:13;95361.34;;;29.07;51.14
6435;BME280;3250;42.694;23.278;2023-06-22T05:44:39;95357.44;;;29.30;51.67
6435;BME280;3250;42.694;23.278;2023-06-22T05:47:06;95361.31;;;29.63;52.29
6435;BME280;3250;42.694;23.278;2023-06-22T05:49:31;95357.16;;;29.75;51.31
6435;BME280;3250;42.694;23.278;2023-06-22T05:51:58;95371.19;;;29.77;51.49
6435;BME280;3250;42.694;23.278;2023-06-22T05:54:24;95349.31;;;29.39;50.82
6435;BME280;3250;42.694;23.278;2023-06-22T05:56:50;95356.78;;;29.33;52.22
6435;BME280;3250;42.694;23.278;2023-06-22T05:59:15;95365.41;;;29.35;51.76
6435;BME280;3250;42.694;23.278;2023-06-22T06:01:40;95360.09;;;29.13;51.23
6435;BME280;3250;42.694;23.278;2023-06-22T06:04:06;95360.06;;;28.96;50.91
6435;BME280;3250;42.694;23.278;2023-06-22T06:06:34;95362.66;;;28.70;51.15
6435;BME280;3250;42.694;23.278;2023-06-22T06:09:03;95359.88;;;28.52;52.87
6435;BME280;3250;42.694;23.278;2023-06-22T06:11:28;95355.50;;;28.43;52.91
6435;BME280;3250;42.694;23.278;2023-06-22T06:13:54;95351.06;;;28.47;52.20
6435;BME280;3250;42.694;23.278;2023-06-22T06:16:19;95330.25;;;28.65;53.73
6435;BME280;3250;42.694;23.278;2023-06-22T06:18:45;95337.00;;;28.76;52.41
6435;BME280;3250;42.694;23.278;2023-06-22T06:21:10;95350.16;;;29.00;52.49
6435;BME280;3250;42.694;23.278;2023-06-22T06:23:35;95337.13;;;29.19;52.38
6435;BME280;3250;42.694;23.278;2023-06-22T06:26:01;95335.72;;;29.30;54.49
6435;BME280;3250;42.694;23.278;2023-06-22T06:28:26;95348.03;;;29.36;51.82
6435;BME280;3250;42.694;23.278;2023-06-22T06:30:52;95354.91;;;29.42;52.23
6435;BME280;3250;42.694;23.278;2023-06-22T06:33:17;95344.53;;;29.53;52.56
6435;BME280;3250;42.694;23.278;2023-06-22T06:35:43;95312.94;;;29.57;52.42
6435;BME280;3250;42.694;23.278;2023-06-22T06:38:08;95327.75;;;29.68;50.21
6435;BME280;3250;42.694;23.278;2023-06-22T06:40:34;95340.88;;;29.92;50.64
6435;BME280;3250;42.694;23.278;2023-06-22T06:42:59;95340.88;;;29.83;49.59
6435;BME280;3250;42.694;23.278;2023-06-22T06:45:25;95316.91;;;29.42;49.42
6435;BME280;3250;42.694;23.278;2023-06-22T06:47:53;95331.28;;;29.51;50.66
6435;BME280;3250;42.694;23.278;2023-06-22T06:50:19;95334.00;;;29.69;53.50
6435;BME280;3250;42.694;23.278;2023-06-22T06:52:45;95316.28;;;29.71;52.31
6435;BME280;3250;42.694;23.278;2023-06-22T06:55:10;95298.56;;;29.82;51.65
6435;BME280;3250;42.694;23.278;2023-06-22T06:57:37;95282.09;;;29.96;52.08
6435;BME280;3250;42.694;23.278;2023-06-22T07:00:07;95307.66;;;30.50;50.78
6435;BME280;3250;42.694;23.278;2023-06-22T07:02:38;95323.41;;;30.74;49.48
6435;BME280;3250;42.694;23.278;2023-06-22T07:05:04;95307.91;;;30.74;49.72
6435;BME280;3250;42.694;23.278;2023-06-22T07:07:30;95328.91;;;30.95;48.35
6435;BME280;3250;42.694;23.278;2023-06-22T07:09:55;95286.25;;;30.87;48.07
6435;BME280;3250;42.694;23.278;2023-06-22T07:12:20;95330.03;;;31.23;47.84
6435;BME280;3250;42.694;23.278;2023-06-22T07:14:46;95324.53;;;31.32;48.06
6435;BME280;3250;42.694;23.278;2023-06-22T07:17:11;95307.50;;;31.43;49.62
6435;BME280;3250;42.694;23.278;2023-06-22T07:19:37;95324.25;;;31.75;50.08
6435;BME280;3250;42.694;23.278;2023-06-22T07:22:03;95326.47;;;31.94;49.26
6435;BME280;3250;42.694;23.278;2023-06-22T07:24:28;95301.13;;;31.81;47.55
6435;BME280;3250;42.694;23.278;2023-06-22T07:26:54;95305.25;;;31.66;47.37
6435;BME280;3250;42.694;23.278;2023-06-22T07:29:25;95336.72;;;31.55;47.66
6435;BME280;3250;42.694;23.278;2023-06-22T07:31:52;95303.50;;;31.41;49.87
6435;BME280;3250;42.694;23.278;2023-06-22T07:34:18;95323.19;;;31.67;50.22
6435;BME280;3250;42.694;23.278;2023-06-22T07:36:44;95314.13;;;31.75;47.67
6435;BME280;3250;42.694;23.278;2023-06-22T07:39:10;95284.34;;;31.37;51.41
6435;BME280;3250;42.694;23.278;2023-06-22T07:41:37;95305.09;;;31.83;49.11
6435;BME280;3250;42.694;23.278;2023-06-22T07:44:02;95328.97;;;32.19;49.72
6435;BME280;3250;42.694;23.278;2023-06-22T07:46:28;95295.66;;;32.14;48.94
6435;BME280;3250;42.694;23.278;2023-06-22T07:48:58;95333.16;;;32.50;47.27
6435;BME280;3250;42.694;23.278;2023-06-22T07:51:25;95299.47;;;32.01;49.56
6435;BME280;3250;42.694;23.278;2023-06-22T07:53:50;95304.84;;;31.76;50.16
6435;BME280;3250;42.694;23.278;2023-06-22T07:56:16;95328.44;;;31.72;50.33
6435;BME280;3250;42.694;23.278;2023-06-22T07:58:46;95330.81;;;31.53;50.39
6435;BME280;3250;42.694;23.278;2023-06-22T08:01:12;95320.50;;;31.17;53.42
6435;BME280;3250;42.694;23.278;2023-06-22T08:03:37;95287.31;;;30.65;51.81
6435;BME280;3250;42.694;23.278;2023-06-22T08:06:03;95315.44;;;30.69;52.48
6435;BME280;3250;42.694;23.278;2023-06-22T08:08:28;95315.38;;;30.86;54.98
6435;BME280;3250;42.694;23.278;2023-06-22T08:10:54;95308.28;;;30.94;52.14
6435;BME280;3250;42.694;23.278;2023-06-22T08:13:19;95321.28;;;31.18;52.70
6435;BME280;3250;42.694;23.278;2023-06-22T08:15:45;95310.56;;;31.21;54.82
6435;BME280;3250;42.694;23.278;2023-06-22T08:18:10;95305.66;;;31.56;53.97
6435;BME280;3250;42.694;23.278;2023-06-22T08:20:36;95294.53;;;31.61;52.31
6435;BME280;3250;42.694;23.278;2023-06-22T08:23:01;95305.56;;;31.85;49.45
6435;BME280;3250;42.694;23.278;2023-06-22T08:25:32;95303.38;;;32.00;50.95
6435;BME280;3250;42.694;23.278;2023-06-22T08:27:58;95296.84;;;31.92;51.55
6435;BME280;3250;42.694;23.278;2023-06-22T08:30:23;95281.75;;;31.82;52.31
6435;BME280;3250;42.694;23.278;2023-06-22T08:32:49;95293.06;;;31.84;52.66
6435;BME280;3250;42.694;23.278;2023-06-22T08:35:14;95274.69;;;31.81;51.42
6435;BME280;3250;42.694;23.278;2023-06-22T08:37:40;95300.59;;;31.88;50.84
6435;BME280;3250;42.694;23.278;2023-06-22T08:40:07;95290.75;;;31.74;52.30
6435;BME280;3250;42.694;23.278;2023-06-22T08:42:35;95302.00;;;31.73;51.78
6435;BME280;3250;42.694;23.278;2023-06-22T08:45:00;95287.31;;;31.44;53.44
6435;BME280;3250;42.694;23.278;2023-06-22T08:47:27;95268.53;;;31.31;53.31
6435;BME280;3250;42.694;23.278;2023-06-22T08:49:53;95302.41;;;31.63;53.00
6435;BME280;3250;42.694;23.278;2023-06-22T08:52:18;95281.69;;;31.70;52.06
6435;BME280;3250;42.694;23.278;2023-06-22T08:54:45;95281.97;;;31.90;48.93
6435;BME280;3250;42.694;23.278;2023-06-22T08:57:10;95244.25;;;31.79;49.77
6435;BME280;3250;42.694;23.278;2023-06-22T08:59:36;95287.50;;;32.14;51.22
6435;BME280;3250;42.694;23.278;2023-06-22T09:02:01;95264.44;;;32.11;46.55
6435;BME280;3250;42.694;23.278;2023-06-22T09:04:27;95278.47;;;32.22;49.19
6435;BME280;3250;42.694;23.278;2023-06-22T09:06:52;95256.44;;;31.94;46.39
6435;BME280;3250;42.694;23.278;2023-06-22T09:09:18;95280.50;;;31.92;46.57
6435;BME280;3250;42.694;23.278;2023-06-22T09:11:44;95281.09;;;31.98;46.86
6435;BME280;3250;42.694;23.278;2023-06-22T09:14:10;95280.88;;;32.03;47.86
6435;BME280;3250;42.694;23.278;2023-06-22T09:16:36;95279.34;;;32.26;48.86
6435;BME280;3250;42.694;23.278;2023-06-22T09:19:02;95279.25;;;32.35;47.46
6435;BME280;3250;42.694;23.278;2023-06-22T09:21:27;95257.19;;;32.15;44.91
6435;BME280;3250;42.694;23.278;2023-06-22T09:23:53;95250.19;;;31.94;46.18
6435;BME280;3250;42.694;23.278;2023-06-22T09:26:18;95263.25;;;31.88;52.62
6435;BME280;3250;42.694;23.278;2023-06-22T09:28:44;95280.63;;;31.96;50.84
6435;BME280;3250;42.694;23.278;2023-06-22T09:31:10;95280.28;;;31.97;49.52
6435;BME280;3250;42.694;23.278;2023-06-22T09:33:36;95285.38;;;31.86;46.97
6435;BME280;3250;42.694;23.278;2023-06-22T09:36:04;95279.44;;;31.84;49.69
6435;BME280;3250;42.694;23.278;2023-06-22T09:38:34;95285.16;;;31.92;50.19
6435;BME280;3250;42.694;23.278;2023-06-22T09:41:00;95287.53;;;31.93;52.33
6435;BME280;3250;42.694;23.278;2023-06-22T09:43:25;95273.44;;;31.79;48.04
6435;BME280;3250;42.694;23.278;2023-06-22T09:45:50;95267.66;;;31.80;49.86
6435;BME280;3250;42.694;23.278;2023-06-22T09:48:16;95278.88;;;31.79;49.56
6435;BME280;3250;42.694;23.278;2023-06-22T09:50:42;95271.69;;;31.74;50.05
6435;BME280;3250;42.694;23.278;2023-06-22T09:53:07;95269.31;;;31.73;48.15
6435;BME280;3250;42.694;23.278;2023-06-22T09:55:32;95267.03;;;31.75;48.46
6435;BME280;3250;42.694;23.278;2023-06-22T09:57:58;95259.31;;;31.65;48.30
6435;BME280;3250;42.694;23.278;2023-06-22T10:00:23;95265.34;;;31.70;51.58
6435;BME280;3250;42.694;23.278;2023-06-22T10:02:49;95252.84;;;31.69;51.12
6435;BME280;3250;42.694;23.278;2023-06-22T10:05:15;95257.41;;;31.77;50.51
6435;BME280;3250;42.694;23.278;2023-06-22T10:07:41;95260.59;;;31.79;49.87
6435;BME280;3250;42.694;23.278;2023-06-22T10:10:09;95238.94;;;31.29;49.03
6435;BME280;3250;42.694;23.278;2023-06-22T10:12:34;95259.56;;;31.30;52.33
6435;BME280;3250;42.694;23.278;2023-06-22T10:15:00;95253.44;;;31.33;53.65
6435;BME280;3250;42.694;23.278;2023-06-22T10:17:25;95257.44;;;31.36;51.08
6435;BME280;3250;42.694;23.278;2023-06-22T10:19:51;95257.44;;;31.36;50.49
6435;BME280;3250;42.694;23.278;2023-06-22T10:22:16;95257.56;;;31.19;47.83
6435;BME280;3250;42.694;23.278;2023-06-22T10:24:41;95239.09;;;31.03;49.47
6435;BME280;3250;42.694;23.278;2023-06-22T10:27:13;95244.19;;;31.14;50.44
6435;BME280;3250;42.694;23.278;2023-06-22T10:29:38;95205.78;;;30.86;50.02
6435;BME280;3250;42.694;23.278;2023-06-22T10:32:04;95241.13;;;31.06;50.44
6435;BME280;3250;42.694;23.278;2023-06-22T10:34:30;95260.19;;;31.06;47.76
6435;BME280;3250;42.694;23.278;2023-06-22T10:36:55;95246.44;;;31.11;48.00
6435;BME280;3250;42.694;23.278;2023-06-22T10:39:21;95244.69;;;31.07;49.63
6435;BME280;3250;42.694;23.278;2023-06-22T10:41:46;95237.03;;;31.00;50.92
6435;BME280;3250;42.694;23.278;2023-06-22T10:44:12;95244.97;;;31.05;50.23
6435;BME280;3250;42.694;23.278;2023-06-22T10:46:38;95232.91;;;30.94;50.17
6435;BME280;3250;42.694;23.278;2023-06-22T10:49:04;95230.25;;;31.06;51.84
6435;BME280;3250;42.694;23.278;2023-06-22T10:51:29;95229.91;;;31.17;50.04
6435;BME280;3250;42.694;23.278;2023-06-22T10:53:57;95225.25;;;31.17;49.45
6435;BME280;3250;42.694;23.278;2023-06-22T10:56:23;95224.28;;;31.22;49.63
6435;BME280;3250;42.694;23.278;2023-06-22T10:58:49;95219.47;;;31.19;49.94
6435;BME280;3250;42.694;23.278;2023-06-22T11:01:15;95197.50;;;31.03;48.92
6435;BME280;3250;42.694;23.278;2023-06-22T11:03:40;95226.69;;;31.15;44.71
6435;BME280;3250;42.694;23.278;2023-06-22T11:06:06;95223.72;;;31.07;45.64
6435;BME280;3250;42.694;23.278;2023-06-22T11:08:31;95225.00;;;31.10;46.35
6435;BME280;3250;42.694;23.278;2023-06-22T11:10:56;95222.75;;;31.12;48.44
6435;BME280;3250;42.694;23.278;2023-06-22T11:13:22;95218.69;;;31.18;48.37
6435;BME280;3250;42.694;23.278;2023-06-22T11:15:47;95213.38;;;31.22;46.13
6435;BME280;3250;42.694;23.278;2023-06-22T11:18:13;95187.56;;;31.07;45.29
6435;BME280;3250;42.694;23.278;2023-06-22T11:20:38;95208.59;;;31.19;47.86
6435;BME280;3250;42.694;23.278;2023-06-22T11:23:06;95207.78;;;31.18;47.66
6435;BME280;3250;42.694;23.278;2023-06-22T11:25:32;95209.19;;;31.24;47.79
6435;BME280;3250;42.694;23.278;2023-06-22T11:28:03;95188.28;;;31.16;49.00
6435;BME280;3250;42.694;23.278;2023-06-22T11:30:28;95171.22;;;31.07;48.82
6435;BME280;3250;42.694;23.278;2023-06-22T11:32:54;95196.91;;;31.18;46.94
6435;BME280;3250;42.694;23.278;2023-06-22T11:35:19;95198.47;;;30.98;47.10
6435;BME280;3250;42.694;23.278;2023-06-22T11:37:45;95202.44;;;30.80;45.57
6435;BME280;3250;42.694;23.278;2023-06-22T11:40:10;95207.88;;;30.59;46.06
6435;BME280;3250;42.694;23.278;2023-06-22T11:42:36;95210.31;;;30.44;49.22
6435;BME280;3250;42.694;23.278;2023-06-22T11:45:04;95202.25;;;30.26;47.25
6435;BME280;3250;42.694;23.278;2023-06-22T11:47:30;95172.66;;;29.87;50.65
6435;BME280;3250;42.694;23.278;2023-06-22T11:49:56;95199.50;;;29.88;54.29
6435;BME280;3250;42.694;23.278;2023-06-22T11:52:21;95193.00;;;29.72;56.80
6435;BME280;3250;42.694;23.278;2023-06-22T11:54:47;95192.38;;;29.58;59.58
6435;BME280;3250;42.694;23.278;2023-06-22T11:57:15;95195.13;;;29.41;60.21
6435;BME280;3250;42.694;23.278;2023-06-22T11:59:40;95203.41;;;29.27;60.43
6435;BME280;3250;42.694;23.278;2023-06-22T12:02:05;95202.31;;;29.19;62.05
6435;BME280;3250;42.694;23.278;2023-06-22T12:04:32;95187.63;;;29.12;63.01
6435;BME280;3250;42.694;23.278;2023-06-22T12:06:58;95190.97;;;29.09;63.87
6435;BME280;3250;42.694;23.278;2023-06-22T12:09:25;95205.81;;;29.03;63.21
6435;BME280;3250;42.694;23.278;2023-06-22T12:11:53;95205.50;;;28.87;64.60
6435;BME280;3250;42.694;23.278;2023-06-22T12:14:18;95181.03;;;28.61;62.44
6435;BME280;3250;42.694;23.278;2023-06-22T12:16:44;95208.63;;;28.72;65.87
6435;BME280;3250;42.694;23.278;2023-06-22T12:19:10;95216.91;;;28.67;66.63
6435;BME280;3250;42.694;23.278;2023-06-22T12:21:38;95222.28;;;28.49;66.98
6435;BME280;3250;42.694;23.278;2023-06-22T12:24:05;95230.16;;;28.20;66.97
6435;BME280;3250;42.694;23.278;2023-06-22T12:26:31;95225.88;;;27.97;68.24
6435;BME280;3250;42.694;23.278;2023-06-22T12:28:57;95208.81;;;27.57;71.01
6435;BME280;3250;42.694;23.278;2023-06-22T12:31:22;95211.09;;;27.05;70.54
6435;BME280;3250;42.694;23.278;2023-06-22T12:33:48;95202.03;;;26.38;73.47
6435;BME280;3250;42.694;23.278;2023-06-22T12:36:13;95221.19;;;26.09;73.25
6435;BME280;3250;42.694;23.278;2023-06-22T12:38:38;95223.34;;;25.79;73.78
6435;BME280;3250;42.694;23.278;2023-06-22T12:41:04;95192.66;;;25.43;76.05
6435;BME280;3250;42.694;23.278;2023-06-22T12:43:29;95201.75;;;25.33;75.09
6435;BME280;3250;42.694;23.278;2023-06-22T12:45:54;95197.47;;;25.13;75.90
6435;BME280;3250;42.694;23.278;2023-06-22T12:48:21;95221.84;;;24.85;75.82
6435;BME280;3250;42.694;23.278;2023-06-22T12:50:47;95230.69;;;24.48;77.56
6435;BME280;3250;42.694;23.278;2023-06-22T12:53:13;95226.19;;;24.43;79.48
6435;BME280;3250;42.694;23.278;2023-06-22T12:55:38;95246.56;;;24.49;79.36
6435;BME280;3250;42.694;23.278;2023-06-22T12:58:03;95240.97;;;24.46;78.72
6435;BME280;3250;42.694;23.278;2023-06-22T13:00:29;95245.63;;;24.59;81.44
6435;BME280;3250;42.694;23.278;2023-06-22T13:02:54;95258.25;;;24.63;79.27
6435;BME280;3250;42.694;23.278;2023-06-22T13:05:20;95220.09;;;24.37;78.03
6435;BME280;3250;42.694;23.278;2023-06-22T13:07:45;95240.28;;;24.77;82.41